This is the latest recevied weather packets stored in our database for station/object TA1BE-13. If no packets are shown the sender has not sent any weather packets the latest 10 day(s).
| Time | Temp. | Humidity | Pressure | Rain* | Wind** | Luminosity | Snow |
|---|---|---|---|---|---|---|---|
| 1778236203 | 19.44° C | 58% | 1017 hPa | - | 4.92 m/s, 232° | - | - |
| 1778234403 | 19.44° C | 58% | 1017 hPa | - | 4.92 m/s, 232° | - | - |
| 1778232603 | 19.44° C | 58% | 1017 hPa | - | 4.92 m/s, 232° | - | - |
| 1778230803 | 19.44° C | 58% | 1018 hPa | - | 4.92 m/s, 232° | - | - |
| 1778229003 | 19.44° C | 58% | 1018 hPa | - | 4.92 m/s, 232° | - | - |
| 1778227203 | 19.44° C | 58% | 1018 hPa | - | 4.92 m/s, 232° | - | - |
| 1778225403 | 16.11° C | 65% | 1018 hPa | - | 4.47 m/s, 235° | - | - |
| 1778223603 | 16.11° C | 65% | 1018 hPa | - | 4.47 m/s, 235° | - | - |
| 1778221802 | 16.11° C | 65% | 1018 hPa | - | 4.47 m/s, 235° | - | - |
| 1778220003 | 16.11° C | 65% | 1018 hPa | - | 4.47 m/s, 235° | - | - |
| 1778194803 | 14.44° C | 76% | 1018 hPa | - | 2.68 m/s, 233° | - | - |
| 1778193004 | 14.44° C | 76% | 1018 hPa | - | 2.68 m/s, 233° | - | - |
| 1778191203 | 14.44° C | 76% | 1018 hPa | - | 2.68 m/s, 233° | - | - |
| 1778189402 | 14.44° C | 76% | 1018 hPa | - | 2.68 m/s, 233° | - | - |
| 1778187603 | 14.44° C | 76% | 1018 hPa | - | 2.68 m/s, 233° | - | - |
| 1778185808 | 14.44° C | 76% | 1018 hPa | - | 2.68 m/s, 233° | - | - |
| 1778184008 | 14.44° C | 76% | 1018 hPa | - | 2.68 m/s, 233° | - | - |
| 1778182203 | 16.11° C | 77% | 1018 hPa | - | 2.68 m/s, 227° | - | - |
| 1778180403 | 16.11° C | 77% | 1017 hPa | - | 2.68 m/s, 227° | - | - |
| 1778178603 | 16.11° C | 77% | 1017 hPa | - | 2.68 m/s, 227° | - | - |
| 1778176803 | 17.78° C | 74% | 1017 hPa | - | 2.68 m/s, 237° | - | - |
| 1778175013 | 17.78° C | 71% | 1017 hPa | - | 2.68 m/s, 237° | - | - |
| 1778173203 | 19.44° C | 66% | 1017 hPa | - | 3.58 m/s, 249° | - | - |
| 1778171409 | 20.56° C | 56% | 1017 hPa | - | 4.47 m/s, 245° | - | - |
| 1778169604 | 20.56° C | 56% | 1017 hPa | - | 4.47 m/s, 245° | - | - |
* Rain since midnight (hover to see other rain measurements)
** Current wind speed in m/s (hover to see current wind gust speed)